Terminal Aerodrome Forecast
Issued by NWS

Current Version | Previous Version | Text Only | Print | Product List | Glossary On
Versions: 1 2 3 4 5 6 7 8 9 10 11 12
000
FTUS42 KGSP 211725
TAFGMU
TAF
KGMU 211725Z 2118/2218 VRB03KT P6SM SKC
     FM212300 00000KT P6SM FEW070 FEW250
     FM220600 00000KT 6SM BR SCT015 BKN250
     FM221500 16005KT P6SM SCT015 BKN200=

USA.gov is the U.S. government's official web portal to all federal, state and local government web resources and services.